Time,TemperatureF,DewpointF,PressureIn,WindDirection,WindDirectionDegrees,WindSpeedMPH,WindSpeedGustMPH,Humidity,HourlyPrecipIn,Conditions,Clouds,dailyrainin,SolarRadiationWatts/m^2,SoftwareType,DateUTC
2013-05-21 00:00:00,53.0,48.0,-100.00,SE,135,1.0,-999.0,83,-99.99,,,-99.99,0.000000,,2013-05-21 05:00:00,
2013-05-21 00:32:00,53.0,48.0,-100.00,SE,135,1.0,-999.0,83,-99.99,,,-99.99,0.000000,,2013-05-21 05:32:00,
2013-05-21 00:42:00,53.0,48.0,-100.00,SE,135,1.0,-999.0,83,-99.99,,,-99.99,0.000000,,2013-05-21 05:42:00,
2013-05-21 00:52:00,53.0,48.0,-100.00,SE,135,1.0,-999.0,83,-99.99,,,-99.99,0.000000,,2013-05-21 05:52:00,
2013-05-21 01:00:00,52.0,47.0,-100.00,SE,135,1.0,-999.0,84,-99.99,,,-99.99,0.000000,,2013-05-21 06:00:00,
2013-05-21 01:32:00,52.0,47.0,-100.00,SE,135,1.0,-999.0,84,-99.99,,,-99.99,0.000000,,2013-05-21 06:32:00,
2013-05-21 01:42:00,52.0,47.0,-100.00,SE,135,1.0,-999.0,84,-99.99,,,-99.99,0.000000,,2013-05-21 06:42:00,
2013-05-21 01:52:00,52.0,47.0,-100.00,SE,135,1.0,-999.0,84,-99.99,,,-99.99,0.000000,,2013-05-21 06:52:00,
2013-05-21 02:00:00,52.0,47.0,-100.00,SSE,157,3.0,-999.0,82,-99.99,,,-99.99,0.000000,,2013-05-21 07:00:00,
2013-05-21 02:32:00,52.0,47.0,-100.00,SSE,157,3.0,-999.0,82,-99.99,,,-99.99,0.000000,,2013-05-21 07:32:00,
2013-05-21 02:42:00,52.0,47.0,-100.00,SSE,157,3.0,-999.0,82,-99.99,,,-99.99,0.000000,,2013-05-21 07:42:00,
2013-05-21 02:52:00,52.0,47.0,-100.00,SSE,157,3.0,-999.0,82,-99.99,,,-99.99,0.000000,,2013-05-21 07:52:00,
2013-05-21 04:00:00,59.0,58.0,-100.00,SSE,157,3.0,-999.0,94,-99.99,,,-99.99,0.000000,,2013-05-21 09:00:00,
2013-05-21 04:33:00,59.0,58.0,-100.00,SSE,157,3.0,-999.0,94,-99.99,,,-99.99,0.000000,,2013-05-21 09:33:00,
2013-05-21 04:42:00,59.0,58.0,-100.00,SSE,157,3.0,-999.0,94,-99.99,,,-99.99,0.000000,,2013-05-21 09:42:00,
2013-05-21 04:53:00,59.0,58.0,-100.00,SSE,157,3.0,-999.0,94,-99.99,,,-99.99,0.000000,,2013-05-21 09:53:00,
2013-05-21 05:00:00,58.0,56.0,-100.00,SSE,157,2.0,-999.0,94,-99.99,,,-99.99,0.000000,,2013-05-21 10:00:00,
2013-05-21 05:42:00,58.0,56.0,-100.00,SSE,157,2.0,-999.0,94,-99.99,,,-99.99,0.000000,,2013-05-21 10:42:00,
2013-05-21 05:52:00,58.0,56.0,-100.00,SSE,157,2.0,-999.0,94,-99.99,,,-99.99,0.000000,,2013-05-21 10:52:00,
2013-05-21 06:00:00,57.0,56.0,-100.00,SSE,157,1.0,-999.0,94,-99.99,,,-99.99,6.960000,,2013-05-21 11:00:00,
2013-05-21 06:42:00,57.0,56.0,-100.00,SSE,157,1.0,-999.0,94,-99.99,,,-99.99,6.960000,,2013-05-21 11:42:00,
2013-05-21 06:52:00,57.0,56.0,-100.00,SSE,157,1.0,-999.0,94,-99.99,,,-99.99,6.960000,,2013-05-21 11:52:00,
2013-05-21 07:00:00,54.0,53.0,-100.00,ESE,112,2.0,-999.0,95,-99.99,,,-99.99,31.320000,,2013-05-21 12:00:00,
2013-05-21 07:42:00,54.0,53.0,-100.00,ESE,112,2.0,-999.0,95,-99.99,,,-99.99,31.320000,,2013-05-21 12:42:00,
2013-05-21 07:52:00,54.0,53.0,-100.00,ESE,112,2.0,-999.0,95,-99.99,,,-99.99,31.320000,,2013-05-21 12:52:00,
2013-05-21 08:00:00,53.0,52.0,-100.00,SSE,157,3.0,-999.0,96,-99.99,,,-99.99,117.160004,,2013-05-21 13:00:00,
2013-05-21 08:42:00,53.0,52.0,-100.00,SSE,157,3.0,-999.0,96,-99.99,,,-99.99,117.160004,,2013-05-21 13:42:00,
2013-05-21 08:52:00,53.0,52.0,-100.00,SSE,157,3.0,-999.0,96,-99.99,,,-99.99,117.160004,,2013-05-21 13:52:00,
2013-05-21 09:00:00,54.0,53.0,-100.00,SSE,157,4.0,-999.0,96,-99.99,,,-99.99,270.279999,,2013-05-21 14:00:00,
2013-05-21 09:42:00,54.0,53.0,-100.00,SSE,157,4.0,-999.0,96,-99.99,,,-99.99,270.279999,,2013-05-21 14:42:00,
2013-05-21 09:52:00,54.0,53.0,-100.00,SSE,157,4.0,-999.0,96,-99.99,,,-99.99,270.279999,,2013-05-21 14:52:00,
2013-05-21 11:00:00,63.0,59.0,-100.00,SSE,157,4.0,-999.0,85,-99.99,,,-99.99,772.559998,,2013-05-21 16:00:00,
2013-05-21 11:42:00,63.0,59.0,-100.00,SSE,157,4.0,-999.0,85,-99.99,,,-99.99,772.559998,,2013-05-21 16:42:00,
2013-05-21 11:53:00,63.0,59.0,-100.00,SSE,157,4.0,-999.0,85,-99.99,,,-99.99,772.559998,,2013-05-21 16:53:00,
2013-05-21 12:00:00,63.0,58.0,-100.00,SSE,157,4.0,-999.0,82,-99.99,,,-99.99,868.840027,,2013-05-21 17:00:00,
2013-05-21 12:44:00,63.0,58.0,-100.00,SSE,157,4.0,-999.0,82,-99.99,,,-99.99,868.840027,,2013-05-21 17:44:00,
2013-05-21 12:52:00,63.0,58.0,-100.00,SSE,157,4.0,-999.0,82,-99.99,,,-99.99,868.840027,,2013-05-21 17:52:00,
2013-05-21 13:00:00,66.0,58.0,-100.00,SSE,157,5.0,-999.0,75,-99.99,,,-99.99,903.640015,,2013-05-21 18:00:00,
2013-05-21 13:32:00,66.0,58.0,-100.00,SSE,157,5.0,-999.0,75,-99.99,,,-99.99,903.640015,,2013-05-21 18:32:00,
2013-05-21 13:42:00,66.0,58.0,-100.00,SSE,157,5.0,-999.0,75,-99.99,,,-99.99,903.640015,,2013-05-21 18:42:00,
2013-05-21 13:52:00,66.0,58.0,-100.00,SSE,157,5.0,-999.0,75,-99.99,,,-99.99,903.640015,,2013-05-21 18:52:00,
2013-05-21 14:00:00,61.0,55.0,-100.00,SSE,157,6.0,-999.0,79,-99.99,,,-99.99,888.559998,,2013-05-21 19:00:00,
2013-05-21 14:32:00,61.0,55.0,-100.00,SSE,157,6.0,-999.0,79,-99.99,,,-99.99,888.559998,,2013-05-21 19:32:00,
2013-05-21 14:42:00,61.0,55.0,-100.00,SSE,157,6.0,-999.0,79,-99.99,,,-99.99,888.559998,,2013-05-21 19:42:00,
2013-05-21 14:52:00,61.0,55.0,-100.00,SSE,157,6.0,-999.0,79,-99.99,,,-99.99,888.559998,,2013-05-21 19:52:00,
2013-05-21 15:00:00,60.0,54.0,-100.00,SSE,157,8.0,-999.0,81,-99.99,,,-99.99,841.000000,,2013-05-21 20:00:00,
2013-05-21 15:33:00,60.0,54.0,-100.00,SSE,157,8.0,-999.0,81,-99.99,,,-99.99,841.000000,,2013-05-21 20:33:00,
2013-05-21 15:42:00,60.0,54.0,-100.00,SSE,157,8.0,-999.0,81,-99.99,,,-99.99,841.000000,,2013-05-21 20:42:00,
2013-05-21 15:52:00,60.0,54.0,-100.00,SSE,157,8.0,-999.0,81,-99.99,,,-99.99,841.000000,,2013-05-21 20:52:00,
2013-05-21 16:00:00,63.0,57.0,-100.00,South,180,9.0,-999.0,79,-99.99,,,-99.99,524.320007,,2013-05-21 21:00:00,
2013-05-21 16:33:00,63.0,57.0,-100.00,South,180,9.0,-999.0,79,-99.99,,,-99.99,524.320007,,2013-05-21 21:33:00,
2013-05-21 16:43:00,63.0,57.0,-100.00,South,180,9.0,-999.0,79,-99.99,,,-99.99,524.320007,,2013-05-21 21:43:00,
2013-05-21 16:54:00,63.0,57.0,-100.00,South,180,9.0,-999.0,79,-99.99,,,-99.99,524.320007,,2013-05-21 21:54:00,
2013-05-21 17:00:00,65.0,58.0,-100.00,South,180,8.0,-999.0,78,-99.99,,,-99.99,241.279999,,2013-05-21 22:00:00,
2013-05-21 17:33:00,65.0,58.0,-100.00,South,180,8.0,-999.0,78,-99.99,,,-99.99,241.279999,,2013-05-21 22:33:00,
2013-05-21 17:42:00,65.0,58.0,-100.00,South,180,8.0,-999.0,78,-99.99,,,-99.99,241.279999,,2013-05-21 22:42:00,
2013-05-21 17:53:00,65.0,58.0,-100.00,South,180,8.0,-999.0,78,-99.99,,,-99.99,241.279999,,2013-05-21 22:53:00,
2013-05-21 18:00:00,66.0,61.0,-100.00,NE,45,1.0,-999.0,83,0.05,,,-99.99,237.800003,,2013-05-21 23:00:00,
2013-05-21 18:32:00,66.0,61.0,-100.00,NE,45,1.0,-999.0,83,0.05,,,-99.99,237.800003,,2013-05-21 23:32:00,
2013-05-21 18:42:00,66.0,61.0,-100.00,NE,45,1.0,-999.0,83,0.05,,,-99.99,237.800003,,2013-05-21 23:42:00,
2013-05-21 18:52:00,66.0,61.0,-100.00,NE,45,1.0,-999.0,83,0.05,,,-99.99,237.800003,,2013-05-21 23:52:00,
2013-05-21 20:00:00,62.0,59.0,-100.00,ESE,112,0.0,-999.0,90,-99.99,,,-99.99,66.120003,,2013-05-22 01:00:00,
2013-05-21 20:32:00,62.0,59.0,-100.00,ESE,112,0.0,-999.0,90,-99.99,,,-99.99,66.120003,,2013-05-22 01:32:00,
2013-05-21 20:42:00,62.0,59.0,-100.00,ESE,112,0.0,-999.0,90,-99.99,,,-99.99,66.120003,,2013-05-22 01:42:00,
2013-05-21 20:52:00,62.0,59.0,-100.00,ESE,112,0.0,-999.0,90,-99.99,,,-99.99,66.120003,,2013-05-22 01:52:00,
2013-05-21 21:00:00,57.0,54.0,-100.00,SE,135,1.0,-999.0,91,-99.99,,,-99.99,3.480000,,2013-05-22 02:00:00,
2013-05-21 21:32:00,57.0,54.0,-100.00,SE,135,1.0,-999.0,91,-99.99,,,-99.99,3.480000,,2013-05-22 02:32:00,
2013-05-21 21:42:00,57.0,54.0,-100.00,SE,135,1.0,-999.0,91,-99.99,,,-99.99,3.480000,,2013-05-22 02:42:00,
2013-05-21 21:52:00,57.0,54.0,-100.00,SE,135,1.0,-999.0,91,-99.99,,,-99.99,3.480000,,2013-05-22 02:52:00,
2013-05-21 22:00:00,53.0,51.0,-100.00,NNE,22,0.0,-999.0,93,-99.99,,,-99.99,0.000000,,2013-05-22 03:00:00,
2013-05-21 22:33:00,53.0,51.0,-100.00,NNE,22,0.0,-999.0,93,-99.99,,,-99.99,0.000000,,2013-05-22 03:33:00,
2013-05-21 22:43:00,53.0,51.0,-100.00,NNE,22,0.0,-999.0,93,-99.99,,,-99.99,0.000000,,2013-05-22 03:43:00,
2013-05-21 22:53:00,53.0,51.0,-100.00,NNE,22,0.0,-999.0,93,-99.99,,,-99.99,0.000000,,2013-05-22 03:53:00,
2013-05-21 23:00:00,53.0,52.0,-100.00,WNW,292,0.0,-999.0,95,-99.99,,,-99.99,0.000000,,2013-05-22 04:00:00,
2013-05-21 23:33:00,53.0,52.0,-100.00,WNW,292,0.0,-999.0,95,-99.99,,,-99.99,0.000000,,2013-05-22 04:33:00,
2013-05-21 23:43:00,53.0,52.0,-100.00,WNW,292,0.0,-999.0,95,-99.99,,,-99.99,0.000000,,2013-05-22 04:43:00,
2013-05-21 23:53:00,53.0,52.0,-100.00,WNW,292,0.0,-999.0,95,-99.99,,,-99.99,0.000000,,2013-05-22 04:53:00,